Time;durP1;ratioP1;P1;durP2;ratioP2;P2;SDS_P1;SDS_P2;PMS_P1;PMS_P2;Temp;Humidity;BMP_temperature;BMP_pressure;BME280_temperature;BME280_humidity;BME280_pressure;Samples;Min_cycle;Max_cycle;Signal;HPM_P1;HPM_P2
2021/05/07 00:02:15;;;;;;;4.43;1.43;;;;;;;8.98;100.00;95328.53;5077779;28;20796;-69
2021/05/07 00:04:41;;;;;;;2.70;1.53;;;;;;;8.97;100.00;95331.34;5076627;28;20692;-69
2021/05/07 00:07:07;;;;;;;4.70;1.40;;;;;;;8.96;100.00;95327.09;5079105;28;20204;-69
2021/05/07 00:09:33;;;;;;;3.40;1.50;;;;;;;9.00;100.00;95328.34;5079687;28;20326;-71
2021/05/07 00:11:59;;;;;;;3.97;1.80;;;;;;;8.95;100.00;95323.66;5079366;28;20268;-72
2021/05/07 00:14:26;;;;;;;4.03;1.37;;;;;;;8.97;100.00;95332.16;5080280;28;20211;-70
2021/05/07 00:16:53;;;;;;;5.57;1.60;;;;;;;8.95;100.00;95330.72;5079110;28;20208;-71
2021/05/07 00:19:19;;;;;;;3.87;1.60;;;;;;;8.94;100.00;95327.28;5079245;28;20731;-71
2021/05/07 00:21:45;;;;;;;4.60;1.17;;;;;;;8.99;100.00;95327.53;5079915;28;20231;-70
2021/05/07 00:24:12;;;;;;;5.30;1.30;;;;;;;8.96;100.00;95334.97;5079130;28;20207;-69
2021/05/07 00:26:38;;;;;;;4.00;1.63;;;;;;;8.92;100.00;95339.78;5078813;28;20670;-71
2021/05/07 00:29:04;;;;;;;4.67;1.90;;;;;;;8.90;100.00;95323.41;5079517;28;20261;-71
2021/05/07 00:31:31;;;;;;;4.10;1.80;;;;;;;8.90;100.00;95336.53;5078838;28;21156;-71
2021/05/07 00:33:56;;;;;;;5.63;1.60;;;;;;;8.87;100.00;95342.19;5079253;28;20207;-70
2021/05/07 00:36:22;;;;;;;2.77;1.47;;;;;;;8.91;100.00;95343.44;5079113;28;20668;-71
2021/05/07 00:38:49;;;;;;;5.57;1.80;;;;;;;8.87;100.00;95350.06;5079098;28;20260;-72
2021/05/07 00:41:15;;;;;;;4.90;1.53;;;;;;;8.88;100.00;95356.91;5079487;28;20196;-72
2021/05/07 00:43:41;;;;;;;7.77;3.00;;;;;;;8.80;100.00;95354.44;5078915;28;20211;-72
2021/05/07 00:46:07;;;;;;;4.23;1.57;;;;;;;8.86;100.00;95351.06;5078948;28;21275;-70
2021/05/07 00:48:37;;;;;;;2.90;1.20;;;;;;;8.85;100.00;95348.63;5078559;28;21407;-70
2021/05/07 00:51:03;;;;;;;2.53;1.20;;;;;;;8.86;100.00;95345.81;5079064;28;20200;-71
2021/05/07 00:53:30;;;;;;;4.50;1.23;;;;;;;8.86;100.00;95345.81;5078734;28;20669;-71
2021/05/07 00:55:56;;;;;;;5.03;1.27;;;;;;;8.86;100.00;95350.22;5078591;28;20308;-71
2021/05/07 00:58:22;;;;;;;1.80;1.10;;;;;;;8.84;100.00;95344.38;5078688;28;20203;-72
2021/05/07 01:00:49;;;;;;;2.37;1.30;;;;;;;8.81;100.00;95352.63;5079025;28;20296;-71
2021/05/07 01:03:15;;;;;;;2.77;1.23;;;;;;;8.80;100.00;95351.81;5078642;28;20243;-71
2021/05/07 01:05:42;;;;;;;3.10;1.30;;;;;;;8.78;100.00;95353.81;5074539;28;20212;-70
2021/05/07 01:08:08;;;;;;;4.57;1.60;;;;;;;8.75;100.00;95354.16;5079041;28;20648;-71
2021/05/07 01:10:35;;;;;;;3.10;1.93;;;;;;;8.73;100.00;95350.09;5078742;28;20226;-71
2021/05/07 01:13:01;;;;;;;3.17;1.90;;;;;;;8.70;100.00;95355.75;5077668;28;20829;-71
2021/05/07 01:15:27;;;;;;;2.87;1.70;;;;;;;8.71;100.00;95346.88;5077801;28;20253;-71
2021/05/07 01:17:55;;;;;;;2.83;1.47;;;;;;;8.70;100.00;95345.22;5078766;28;20204;-71
2021/05/07 01:20:24;;;;;;;3.40;1.83;;;;;;;8.68;100.00;95341.97;5078304;28;20215;-69
2021/05/07 01:22:51;;;;;;;3.77;2.17;;;;;;;8.65;100.00;95343.16;5078261;28;20327;-71
2021/05/07 01:25:19;;;;;;;2.27;1.70;;;;;;;8.67;100.00;95341.16;5077998;28;20223;-71
2021/05/07 01:27:48;;;;;;;2.63;1.63;;;;;;;8.67;100.00;95346.41;5077728;28;20619;-70
2021/05/07 01:30:17;;;;;;;3.40;1.47;;;;;;;8.66;100.00;95344.00;5077647;28;20219;-69
2021/05/07 01:32:43;;;;;;;3.53;1.20;;;;;;;8.67;100.00;95337.75;5078581;28;20744;-69
2021/05/07 01:35:13;;;;;;;2.60;1.20;;;;;;;8.66;100.00;95339.53;5077283;28;20199;-71
2021/05/07 01:37:41;;;;;;;2.00;1.30;;;;;;;8.64;100.00;95341.56;5078831;28;20290;-72
2021/05/07 01:40:14;;;;;;;2.17;1.13;;;;;;;8.62;100.00;95343.53;5078027;28;20919;-71
2021/05/07 01:42:41;;;;;;;3.53;1.33;;;;;;;8.64;100.00;95356.47;5078173;28;20219;-69
2021/05/07 01:45:08;;;;;;;1.63;1.00;;;;;;;8.61;100.00;95355.03;5076710;28;20204;-71
2021/05/07 01:47:34;;;;;;;2.77;1.53;;;;;;;8.61;100.00;95362.91;5077655;28;20206;-70
2021/05/07 01:50:01;;;;;;;2.23;1.10;;;;;;;8.57;100.00;95364.28;5078613;28;20234;-72
2021/05/07 01:52:27;;;;;;;3.57;1.77;;;;;;;8.61;100.00;95357.66;5078111;28;20237;-71
2021/05/07 01:54:54;;;;;;;3.53;1.20;;;;;;;8.65;100.00;95358.91;5077735;28;20277;-71
2021/05/07 01:57:19;;;;;;;2.97;1.50;;;;;;;8.69;100.00;95356.72;5077509;28;20646;-69
2021/05/07 01:59:45;;;;;;;3.47;1.50;;;;;;;8.63;100.00;95355.69;5077635;28;20227;-70
2021/05/07 02:02:11;;;;;;;4.90;1.30;;;;;;;8.68;100.00;95363.81;5077094;28;21041;-69
2021/05/07 02:04:37;;;;;;;3.63;1.50;;;;;;;8.67;100.00;95362.19;5074345;28;20664;-71
2021/05/07 02:07:03;;;;;;;5.00;1.60;;;;;;;8.72;100.00;95359.00;5076524;28;20605;-70
2021/05/07 02:09:29;;;;;;;3.10;1.47;;;;;;;8.67;100.00;95359.56;5077420;28;20314;-71
2021/05/07 02:11:56;;;;;;;3.27;1.40;;;;;;;8.69;100.00;95360.19;5077356;28;21102;-71
2021/05/07 02:14:22;;;;;;;3.07;2.00;;;;;;;8.64;100.00;95370.44;5077352;28;20200;-69
2021/05/07 02:16:48;;;;;;;2.97;1.70;;;;;;;8.59;100.00;95375.44;5076440;28;20276;-69
2021/05/07 02:19:14;;;;;;;4.43;1.80;;;;;;;8.56;100.00;95362.66;5076838;28;20234;-69
2021/05/07 02:21:40;;;;;;;3.60;2.00;;;;;;;8.52;100.00;95369.28;5077267;28;20223;-70
2021/05/07 02:24:06;;;;;;;4.13;1.50;;;;;;;8.51;100.00;95374.72;5077535;28;20207;-70
2021/05/07 02:26:32;;;;;;;1.90;1.33;;;;;;;8.50;100.00;95384.41;5076293;28;20207;-70
2021/05/07 02:29:00;;;;;;;3.07;1.93;;;;;;;8.53;100.00;95388.50;5077472;28;20227;-71
2021/05/07 02:31:26;;;;;;;3.40;1.80;;;;;;;8.51;100.00;95383.44;5077557;28;20208;-69
2021/05/07 02:33:51;;;;;;;3.80;1.87;;;;;;;8.45;100.00;95380.69;5077034;28;20238;-71
2021/05/07 02:36:17;;;;;;;3.07;2.37;;;;;;;8.42;100.00;95375.03;5072624;28;20200;-71
2021/05/07 02:38:43;;;;;;;4.57;2.40;;;;;;;8.37;100.00;95378.19;5076822;28;20208;-71
2021/05/07 02:41:09;;;;;;;4.13;2.27;;;;;;;8.38;100.00;95386.91;5077087;28;20210;-69
2021/05/07 02:43:35;;;;;;;5.53;1.70;;;;;;;8.37;100.00;95387.88;5076837;28;20231;-69
2021/05/07 02:46:02;;;;;;;1.93;1.70;;;;;;;8.35;100.00;95385.44;5076833;28;20263;-70
2021/05/07 02:48:28;;;;;;;3.47;1.60;;;;;;;8.32;100.00;95387.63;5076581;28;20210;-71
2021/05/07 02:50:54;;;;;;;2.60;1.27;;;;;;;8.23;100.00;95393.97;5077016;28;20220;-71
2021/05/07 02:53:20;;;;;;;2.47;1.00;;;;;;;8.16;100.00;95388.63;5076677;28;20235;-71
2021/05/07 02:55:46;;;;;;;1.03;0.87;;;;;;;8.16;100.00;95387.81;5076472;28;20771;-69
2021/05/07 02:58:12;;;;;;;1.80;1.00;;;;;;;8.15;100.00;95388.81;5076491;28;20200;-70
2021/05/07 03:00:39;;;;;;;2.33;1.30;;;;;;;8.11;100.00;95395.41;5076901;28;20230;-69
2021/05/07 03:03:05;;;;;;;1.23;0.90;;;;;;;8.06;100.00;95393.31;5077739;28;20224;-70
2021/05/07 03:05:32;;;;;;;3.47;1.10;;;;;;;7.94;100.00;95401.81;5072415;28;20200;-69
2021/05/07 03:07:58;;;;;;;2.07;1.10;;;;;;;7.96;100.00;95403.25;5076163;28;20200;-69
2021/05/07 03:10:24;;;;;;;3.70;0.93;;;;;;;7.86;100.00;95411.59;5077017;28;20356;-70
2021/05/07 03:12:50;;;;;;;1.57;0.80;;;;;;;7.83;100.00;95410.16;5076705;28;20211;-69
2021/05/07 03:15:17;;;;;;;1.50;0.80;;;;;;;7.74;100.00;95413.84;5076190;28;20203;-69
2021/05/07 03:17:42;;;;;;;1.33;0.80;;;;;;;7.69;100.00;95415.38;5077109;28;20215;-70
2021/05/07 03:20:11;;;;;;;3.87;0.60;;;;;;;7.68;100.00;95408.50;5076588;28;20681;-71
2021/05/07 03:22:37;;;;;;;1.50;0.80;;;;;;;7.67;100.00;95415.53;5076528;28;20227;-70
2021/05/07 03:25:04;;;;;;;4.27;1.00;;;;;;;7.62;100.00;95417.88;5076158;28;20222;-70
2021/05/07 03:27:30;;;;;;;1.03;0.73;;;;;;;7.60;100.00;95416.44;5076316;28;20204;-69
2021/05/07 03:29:56;;;;;;;1.80;1.50;;;;;;;7.61;100.00;95424.16;5076402;28;20330;-71
2021/05/07 03:32:22;;;;;;;2.50;1.13;;;;;;;7.60;100.00;95416.44;5076846;28;20722;-71
2021/05/07 03:34:48;;;;;;;3.10;1.00;;;;;;;7.60;100.00;95422.50;5076493;28;20294;-70
2021/05/07 03:37:15;;;;;;;1.63;0.90;;;;;;;7.53;100.00;95424.19;5077122;28;20216;-69
2021/05/07 03:39:41;;;;;;;2.13;1.10;;;;;;;7.56;100.00;95429.09;5079613;28;20241;-71
2021/05/07 03:42:08;;;;;;;2.77;1.03;;;;;;;7.54;100.00;95427.66;5080296;28;20609;-71
2021/05/07 03:44:34;;;;;;;1.63;0.80;;;;;;;7.51;100.00;95423.59;5080138;28;20261;-68
2021/05/07 03:47:01;;;;;;;3.77;0.93;;;;;;;7.53;100.00;95429.44;5079819;28;20331;-68
2021/05/07 03:49:27;;;;;;;1.67;0.90;;;;;;;7.52;100.00;95435.69;5079923;28;20228;-71
2021/05/07 03:51:53;;;;;;;2.00;1.00;;;;;;;7.60;100.00;95433.00;5080218;28;20214;-69
2021/05/07 03:54:20;;;;;;;4.03;1.10;;;;;;;7.57;100.00;95440.41;5079778;28;20291;-69
2021/05/07 03:56:46;;;;;;;1.00;0.80;;;;;;;7.64;100.00;95439.50;5079396;28;20581;-70
2021/05/07 03:59:12;;;;;;;1.87;1.00;;;;;;;7.68;100.00;95425.06;5079943;28;20255;-69
2021/05/07 04:01:38;;;;;;;1.53;0.90;;;;;;;7.65;100.00;95435.06;5079835;28;20262;-71
2021/05/07 04:04:06;;;;;;;1.80;1.07;;;;;;;7.65;100.00;95441.16;5077443;28;20231;-70
2021/05/07 04:06:32;;;;;;;3.00;0.80;;;;;;;7.72;100.00;95447.28;5078822;28;20212;-68
2021/05/07 04:09:03;;;;;;;2.57;0.90;;;;;;;7.74;100.00;95447.94;5079662;28;20838;-71
2021/05/07 04:11:33;;;;;;;1.47;1.13;;;;;;;7.71;100.00;95435.16;5080054;28;20265;-71
2021/05/07 04:13:59;;;;;;;2.17;1.10;;;;;;;7.75;100.00;95441.72;5081113;28;20199;-69
2021/05/07 04:16:25;;;;;;;3.90;1.40;;;;;;;7.74;100.00;95450.56;5078503;28;20239;-69
2021/05/07 04:18:54;;;;;;;1.47;1.00;;;;;;;7.78;100.00;95451.00;5079404;28;20228;-69
2021/05/07 04:21:20;;;;;;;2.67;1.23;;;;;;;7.77;100.00;95454.63;5079466;28;20203;-70
2021/05/07 04:23:46;;;;;;;2.83;1.00;;;;;;;7.74;100.00;95457.59;5080227;28;20259;-70
2021/05/07 04:26:12;;;;;;;2.83;1.60;;;;;;;7.43;100.00;95462.13;5077985;28;20292;-69
2021/05/07 04:28:38;;;;;;;2.73;1.70;;;;;;;7.34;100.00;95482.38;5079577;28;20705;-69
2021/05/07 04:31:04;;;;;;;2.07;1.60;;;;;;;7.14;100.00;95492.66;5078879;28;20200;-71
2021/05/07 04:33:30;;;;;;;2.70;1.50;;;;;;;7.26;100.00;95484.22;5079657;28;20207;-70
2021/05/07 04:35:56;;;;;;;2.43;1.70;;;;;;;7.25;100.00;95495.69;5078346;28;20346;-71
2021/05/07 04:38:22;;;;;;;2.07;1.57;;;;;;;7.24;100.00;95495.88;5079527;28;20319;-70
2021/05/07 04:40:48;;;;;;;3.73;1.60;;;;;;;7.17;100.00;95498.38;5078706;28;20224;-70
2021/05/07 04:43:14;;;;;;;1.80;1.50;;;;;;;7.19;100.00;95498.19;5078611;28;20421;-70
2021/05/07 04:45:41;;;;;;;2.43;1.77;;;;;;;7.18;100.00;95499.19;5078801;28;20220;-69
2021/05/07 04:48:11;;;;;;;2.50;1.93;;;;;;;7.27;100.00;95510.25;5077851;28;20202;-70
2021/05/07 04:50:37;;;;;;;1.67;1.57;;;;;;;7.21;100.00;95507.50;5078823;28;20273;-70
2021/05/07 04:53:03;;;;;;;2.17;1.60;;;;;;;7.19;100.00;95508.69;5079199;28;20204;-71
2021/05/07 04:55:29;;;;;;;2.80;1.70;;;;;;;7.18;100.00;95501.81;5078759;28;20200;-69
2021/05/07 04:57:55;;;;;;;2.37;1.60;;;;;;;7.20;100.00;95507.69;5078677;28;20642;-68
2021/05/07 05:00:22;;;;;;;3.03;1.80;;;;;;;7.19;100.00;95512.09;5078559;28;20220;-71
2021/05/07 05:02:48;;;;;;;1.70;1.50;;;;;;;7.27;100.00;95515.50;5078822;28;20228;-70
2021/05/07 05:05:17;;;;;;;2.23;1.53;;;;;;;7.26;100.00;95522.72;5075944;28;20196;-68
2021/05/07 05:07:47;;;;;;;1.97;1.53;;;;;;;7.28;100.00;95526.81;5078254;28;20208;-70
2021/05/07 05:10:13;;;;;;;2.60;1.90;;;;;;;7.39;100.00;95524.56;5078791;28;20255;-69
2021/05/07 05:12:39;;;;;;;2.43;1.93;;;;;;;7.40;100.00;95520.97;5078030;28;20341;-71
2021/05/07 05:15:06;;;;;;;1.80;1.50;;;;;;;7.43;100.00;95518.00;5077732;28;20208;-69
2021/05/07 05:17:32;;;;;;;2.40;1.60;;;;;;;7.52;100.00;95522.19;5078152;28;20204;-70
2021/05/07 05:19:59;;;;;;;2.87;1.47;;;;;;;7.55;100.00;95524.47;5078381;28;20234;-70
2021/05/07 05:22:25;;;;;;;1.63;1.47;;;;;;;7.55;100.00;95534.94;5078476;28;20230;-69
2021/05/07 05:24:51;;;;;;;1.70;1.57;;;;;;;7.46;100.00;95533.38;5078000;28;20261;-70
2021/05/07 05:27:17;;;;;;;3.50;1.97;;;;;;;7.47;100.00;95535.03;5077472;28;20310;-71
2021/05/07 05:29:43;;;;;;;2.40;1.57;;;;;;;7.47;100.00;95535.03;5078555;28;20741;-71
2021/05/07 05:32:09;;;;;;;2.00;1.50;;;;;;;7.47;100.00;95542.88;5077651;28;20227;-71
2021/05/07 05:34:35;;;;;;;2.00;1.80;;;;;;;7.43;100.00;95549.47;5078372;28;20568;-68
2021/05/07 05:37:02;;;;;;;1.70;1.40;;;;;;;7.35;100.00;95562.59;5078377;28;20203;-70
2021/05/07 05:39:28;;;;;;;3.63;1.90;;;;;;;7.36;100.00;95553.75;5077535;28;20228;-68
2021/05/07 05:41:54;;;;;;;2.27;1.70;;;;;;;7.36;100.00;95551.13;5077973;28;20214;-71
2021/05/07 05:44:20;;;;;;;2.90;1.80;;;;;;;7.17;100.00;95555.22;5077921;28;20203;-70
2021/05/07 05:46:46;;;;;;;3.73;1.60;;;;;;;7.07;100.00;95555.41;5077482;28;21335;-68
2021/05/07 05:49:12;;;;;;;2.50;1.47;;;;;;;7.00;100.00;95569.34;5077317;28;20311;-68
2021/05/07 05:51:38;;;;;;;4.07;1.60;;;;;;;6.97;100.00;95567.91;5078031;28;20199;-69
2021/05/07 05:54:06;;;;;;;2.00;1.63;;;;;;;6.95;100.00;95574.28;5077908;28;20200;-69
2021/05/07 05:56:32;;;;;;;2.40;1.70;;;;;;;6.95;100.00;95576.91;5077201;28;20240;-68
2021/05/07 05:58:58;;;;;;;2.40;1.40;;;;;;;6.87;100.00;95579.56;5077213;28;20656;-68
2021/05/07 06:01:24;;;;;;;1.70;1.60;;;;;;;6.85;100.00;95586.81;5078230;28;20234;-69
2021/05/07 06:03:50;;;;;;;2.30;1.30;;;;;;;6.69;100.00;95592.09;5077241;28;20709;-68
2021/05/07 06:06:17;;;;;;;3.27;1.53;;;;;;;6.58;100.00;95595.09;5074502;28;20227;-67
2021/05/07 06:08:43;;;;;;;1.43;1.00;;;;;;;6.41;100.00;95601.31;5077313;28;20208;-70
2021/05/07 06:11:10;;;;;;;1.07;0.97;;;;;;;6.38;100.00;95609.50;5077556;28;20222;-69
2021/05/07 06:13:36;;;;;;;1.40;0.90;;;;;;;6.33;100.00;95611.00;5077176;28;20214;-70
2021/05/07 06:16:02;;;;;;;1.63;0.60;;;;;;;6.21;100.00;95607.91;5077091;28;20203;-70
2021/05/07 06:18:28;;;;;;;0.80;0.70;;;;;;;6.20;100.00;95605.47;5077178;28;20200;-71
2021/05/07 06:20:54;;;;;;;0.70;0.70;;;;;;;6.12;100.00;95608.91;5075935;28;20231;-70
2021/05/07 06:23:20;;;;;;;1.40;0.70;;;;;;;6.11;100.00;95614.31;5075396;28;20362;-68
2021/05/07 06:25:46;;;;;;;0.70;0.70;;;;;;;6.10;100.00;95618.69;5075067;28;20294;-68
2021/05/07 06:28:12;;;;;;;0.53;0.53;;;;;;;5.92;100.00;95614.66;5075507;28;20304;-73
2021/05/07 06:30:38;;;;;;;0.50;0.50;;;;;;;5.80;100.00;95622.97;5075228;28;20231;-71
2021/05/07 06:33:04;;;;;;;0.83;0.60;;;;;;;5.70;100.00;95632.72;5075665;28;20638;-72
2021/05/07 06:35:30;;;;;;;0.70;0.53;;;;;;;5.62;100.00;95636.13;5076376;28;20204;-71
2021/05/07 06:37:59;;;;;;;1.50;0.60;;;;;;;5.64;100.00;95654.31;5076321;28;20684;-70
2021/05/07 06:40:25;;;;;;;2.20;0.60;;;;;;;5.55;100.00;95645.63;5076448;28;20255;-73
2021/05/07 06:42:51;;;;;;;2.07;0.70;;;;;;;5.56;100.00;95662.09;5076608;28;20269;-70
2021/05/07 06:45:18;;;;;;;1.83;0.80;;;;;;;5.51;100.00;95667.00;5075428;28;20199;-71
2021/05/07 06:47:44;;;;;;;2.63;0.60;;;;;;;5.55;100.00;95663.09;5076643;28;20492;-72
2021/05/07 06:50:12;;;;;;;1.13;0.70;;;;;;;5.60;100.00;95664.25;5075877;28;20250;-72
2021/05/07 06:52:38;;;;;;;1.97;0.77;;;;;;;5.63;100.00;95665.72;5075700;28;20681;-70
2021/05/07 06:55:05;;;;;;;0.73;0.73;;;;;;;5.79;100.00;95665.75;5075289;28;20203;-71
2021/05/07 06:57:31;;;;;;;0.50;0.50;;;;;;;5.69;100.00;95662.44;5076486;28;20265;-70
2021/05/07 06:59:57;;;;;;;0.87;0.63;;;;;;;5.64;100.00;95667.38;5075515;28;20634;-70
2021/05/07 07:02:24;;;;;;;1.70;0.60;;;;;;;5.71;100.00;95677.00;5076835;28;20312;-71
2021/05/07 07:04:50;;;;;;;2.10;0.70;;;;;;;5.68;100.00;95679.13;5073511;28;20227;-71
2021/05/07 07:07:16;;;;;;;0.80;0.60;;;;;;;5.70;100.00;95685.00;5074904;28;20290;-71
2021/05/07 07:09:43;;;;;;;0.80;0.60;;;;;;;5.64;100.00;95688.28;5076281;28;20311;-72
2021/05/07 07:12:09;;;;;;;0.50;0.50;;;;;;;5.63;100.00;95684.03;5078498;28;20209;-70
2021/05/07 07:14:38;;;;;;;0.50;0.50;;;;;;;5.66;100.00;95692.34;5080117;28;20264;-70
2021/05/07 07:17:05;;;;;;;1.03;0.60;;;;;;;5.72;100.00;95690.91;5078895;28;20207;-72
2021/05/07 07:19:32;;;;;;;0.80;0.70;;;;;;;5.78;100.00;95690.25;5080659;28;20648;-70
2021/05/07 07:21:58;;;;;;;0.70;0.67;;;;;;;5.73;100.00;95689.94;5080201;28;20199;-70
2021/05/07 07:24:24;;;;;;;0.60;0.60;;;;;;;5.66;100.00;95686.31;5079473;28;20207;-73
2021/05/07 07:26:50;;;;;;;1.47;0.80;;;;;;;5.74;100.00;95697.59;5079170;28;20204;-70
2021/05/07 07:29:16;;;;;;;1.10;0.80;;;;;;;5.78;100.00;95703.34;5079731;28;20591;-72
2021/05/07 07:31:42;;;;;;;1.03;0.70;;;;;;;5.73;100.00;95710.84;5079750;28;20290;-73
2021/05/07 07:34:08;;;;;;;1.80;0.70;;;;;;;5.77;100.00;95718.22;5080144;28;20283;-70
2021/05/07 07:36:35;;;;;;;0.90;0.90;;;;;;;5.82;100.00;95709.91;5078936;28;20486;-72
2021/05/07 07:39:01;;;;;;;1.03;0.87;;;;;;;6.06;100.00;95716.78;5079425;28;20223;-71
2021/05/07 07:41:27;;;;;;;1.00;0.90;;;;;;;6.13;100.00;95709.91;5079708;28;20212;-73
2021/05/07 07:43:53;;;;;;;2.57;1.03;;;;;;;6.12;100.00;95705.69;5080797;28;20223;-71
2021/05/07 07:46:19;;;;;;;0.80;0.70;;;;;;;6.01;100.00;95714.81;5079508;28;20195;-70
2021/05/07 07:48:45;;;;;;;1.20;1.00;;;;;;;6.07;100.00;95718.44;5080036;28;20211;-71
2021/05/07 07:51:11;;;;;;;1.10;0.90;;;;;;;6.21;100.00;95717.78;5079802;28;20215;-72
2021/05/07 07:53:38;;;;;;;1.20;1.03;;;;;;;6.45;100.00;95725.59;5080669;28;20207;-73
2021/05/07 07:56:05;;;;;;;1.07;0.80;;;;;;;6.40;100.00;95733.16;5079085;28;20204;-71
2021/05/07 07:58:31;;;;;;;1.70;1.00;;;;;;;6.40;100.00;95733.16;5080107;28;20203;-70
2021/05/07 08:00:57;;;;;;;2.20;1.00;;;;;;;6.36;100.00;95731.03;5080415;28;20203;-74
2021/05/07 08:03:23;;;;;;;0.90;0.70;;;;;;;6.31;100.00;95728.91;5079681;28;20346;-70
2021/05/07 08:05:49;;;;;;;1.97;1.27;;;;;;;6.43;100.00;95742.44;5076263;28;20211;-73
2021/05/07 08:08:15;;;;;;;1.53;1.23;;;;;;;6.46;100.00;95745.56;5076174;28;20672;-70
2021/05/07 08:10:41;;;;;;;3.83;1.80;;;;;;;6.32;100.00;95733.13;5077886;28;20273;-74
2021/05/07 08:13:07;;;;;;;4.67;1.80;;;;;;;6.19;100.00;95745.09;5079810;28;20203;-70
2021/05/07 08:15:33;;;;;;;2.40;1.50;;;;;;;6.27;100.00;95751.13;5079766;28;20695;-70
2021/05/07 08:17:59;;;;;;;3.70;1.97;;;;;;;6.44;100.00;95750.16;5079085;28;20661;-74
2021/05/07 08:20:27;;;;;;;2.97;2.30;;;;;;;6.66;100.00;95737.22;5079908;28;20228;-70
2021/05/07 08:22:53;;;;;;;3.33;2.40;;;;;;;6.94;100.00;95753.38;5079477;28;20243;-70
2021/05/07 08:25:20;;;;;;;3.27;2.57;;;;;;;7.11;100.00;95752.38;5079228;28;20755;-73
2021/05/07 08:27:47;;;;;;;3.80;2.50;;;;;;;7.21;100.00;95769.53;5079375;28;20215;-73
2021/05/07 08:30:14;;;;;;;4.87;2.60;;;;;;;7.04;100.00;95774.94;5079371;28;20231;-73
2021/05/07 08:32:41;;;;;;;3.30;2.57;;;;;;;7.09;100.00;95775.28;5079496;28;20575;-71
2021/05/07 08:35:08;;;;;;;4.00;2.73;;;;;;;7.05;100.00;95776.59;5078545;28;20203;-70
2021/05/07 08:37:40;;;;;;;3.10;2.57;;;;;;;7.22;100.00;95780.81;5079409;28;20737;-74
2021/05/07 08:40:07;;;;;;;4.30;2.70;;;;;;;7.13;100.00;95790.50;5078962;28;20717;-71
2021/05/07 08:42:33;;;;;;;4.93;2.97;;;;;;;7.03;100.00;95789.06;5078900;28;20234;-73
2021/05/07 08:45:00;;;;;;;3.67;2.50;;;;;;;6.99;100.00;95803.47;5078596;28;20203;-74
2021/05/07 08:47:28;;;;;;;4.73;3.13;;;;;;;6.81;100.00;95813.28;5078802;28;20204;-70
2021/05/07 08:49:55;;;;;;;4.37;3.47;;;;;;;6.78;100.00;95817.06;5078272;28;20597;-72
2021/05/07 08:52:21;;;;;;;4.67;3.40;;;;;;;6.70;100.00;95819.66;5079117;28;20192;-73
2021/05/07 08:54:47;;;;;;;6.27;3.80;;;;;;;6.71;100.00;95830.97;5078891;28;20206;-71
2021/05/07 08:57:13;;;;;;;5.07;3.60;;;;;;;6.72;100.00;95840.44;5078082;28;20793;-71
2021/05/07 08:59:39;;;;;;;7.27;4.40;;;;;;;6.67;100.00;95855.84;5078879;28;20220;-73
2021/05/07 09:02:06;;;;;;;8.10;4.60;;;;;;;6.68;100.00;95847.84;5078410;28;20199;-71
2021/05/07 09:04:33;;;;;;;7.10;4.40;;;;;;;6.72;100.00;95856.16;5076128;28;20214;-71
2021/05/07 09:06:58;;;;;;;3.60;2.70;;;;;;;6.85;100.00;95846.03;5078250;28;20200;-73
2021/05/07 09:09:27;;;;;;;8.60;5.97;;;;;;;7.11;100.00;95844.88;5077831;28;20246;-74
2021/05/07 09:11:55;;;;;;;8.57;5.23;;;;;;;7.27;100.00;95856.13;5078727;28;20326;-73
2021/05/07 09:14:22;;;;;;;9.10;6.00;;;;;;;7.47;100.00;95852.19;5078610;28;20192;-70
2021/05/07 09:16:59;;;;;;;7.33;5.13;;;;;;;7.60;100.00;95862.97;5077488;28;20211;-71
2021/05/07 09:19:28;;;;;;;6.87;4.30;;;;;;;7.63;100.00;95867.88;5077988;28;20238;-71
2021/05/07 09:21:55;;;;;;;9.73;6.70;;;;;;;7.69;100.00;95872.44;5078442;28;20204;-74
2021/05/07 09:24:30;;;;;;;9.77;6.90;;;;;;;7.78;100.00;95875.84;5078580;28;20220;-71
2021/05/07 09:26:57;;;;;;;8.63;5.80;;;;;;;7.68;100.00;95885.72;5077653;28;20196;-71
2021/05/07 09:29:24;;;;;;;8.73;5.07;;;;;;;7.71;100.00;95880.94;5078132;28;20223;-71
2021/05/07 09:31:51;;;;;;;9.10;5.90;;;;;;;7.57;100.00;95889.50;5078417;28;20203;-70
2021/05/07 09:34:18;;;;;;;12.60;7.10;;;;;;;7.75;100.00;95890.13;5077365;28;20192;-72
2021/05/07 09:36:46;;;;;;;10.37;6.87;;;;;;;7.99;100.00;95892.66;5077379;28;20203;-72
2021/05/07 09:39:14;;;;;;;9.50;5.93;;;;;;;8.12;100.00;95890.31;5078066;28;20226;-73
2021/05/07 09:41:42;;;;;;;9.10;6.40;;;;;;;8.10;100.00;95894.94;5078261;28;20204;-71
2021/05/07 09:44:16;;;;;;;9.43;6.40;;;;;;;8.24;100.00;95889.81;5078157;28;20243;-71
2021/05/07 09:46:42;;;;;;;9.53;6.37;;;;;;;8.47;100.00;95897.75;5077193;28;20207;-71
2021/05/07 09:49:08;;;;;;;6.87;4.27;;;;;;;8.55;100.00;95904.59;5077961;28;20224;-73
2021/05/07 09:51:40;;;;;;;9.73;5.70;;;;;;;8.40;100.00;95904.66;5077706;28;20211;-71
2021/05/07 09:54:08;;;;;;;9.23;4.67;;;;;;;8.24;100.00;95904.75;5077642;28;20196;-71
2021/05/07 09:56:34;;;;;;;6.57;4.37;;;;;;;8.01;100.00;95909.88;5076948;28;21155;-74
2021/05/07 09:59:01;;;;;;;11.60;6.97;;;;;;;8.16;100.00;95908.22;5077162;28;20234;-71
2021/05/07 10:01:27;;;;;;;10.13;6.17;;;;;;;8.41;100.00;95912.34;5077711;28;20200;-72
2021/05/07 10:03:55;;;;;;;8.80;5.67;;;;;;;8.33;100.00;95919.47;5077601;28;20251;-72
2021/05/07 10:06:21;;;;;;;8.60;4.93;;;;;;;8.44;97.57;95917.28;5074318;28;20199;-70
2021/05/07 10:08:47;;;;;;;8.43;4.97;;;;;;;8.43;98.11;95918.25;5077016;28;20624;-73
2021/05/07 10:11:16;;;;;;;9.23;5.47;;;;;;;8.78;98.58;95934.34;5077466;28;20250;-73
2021/05/07 10:13:43;;;;;;;8.07;4.07;;;;;;;8.75;91.71;95937.28;5077693;28;20235;-71
2021/05/07 10:16:11;;;;;;;6.63;4.80;;;;;;;9.15;91.14;95934.38;5076300;28;20203;-71
2021/05/07 10:18:38;;;;;;;6.90;3.60;;;;;;;9.33;84.84;95940.16;5077381;28;20208;-74
2021/05/07 10:21:06;;;;;;;7.63;5.00;;;;;;;9.48;84.25;95930.50;5077665;28;20214;-71
2021/05/07 10:23:32;;;;;;;5.63;3.37;;;;;;;9.35;77.34;95946.06;5076783;28;20219;-71
2021/05/07 10:26:00;;;;;;;8.73;3.97;;;;;;;9.32;76.47;95946.44;5076187;28;20204;-73
2021/05/07 10:28:29;;;;;;;4.70;3.03;;;;;;;9.25;78.15;95958.63;5077266;28;21015;-74
2021/05/07 10:31:03;;;;;;;3.87;2.30;;;;;;;9.19;78.18;95947.03;5077895;28;20231;-74
2021/05/07 10:33:29;;;;;;;7.67;3.97;;;;;;;9.36;77.44;95953.78;5076572;28;20204;-74
2021/05/07 10:35:55;;;;;;;6.20;3.60;;;;;;;9.25;77.15;95966.53;5076546;28;20226;-72
2021/05/07 10:38:22;;;;;;;7.70;4.80;;;;;;;9.60;77.93;95952.75;5076723;28;20207;-70
2021/05/07 10:40:51;;;;;;;6.30;4.70;;;;;;;9.79;77.46;95956.53;5076751;28;20223;-71
2021/05/07 10:43:18;;;;;;;8.20;5.13;;;;;;;10.17;81.26;95949.41;5075930;28;20215;-70
2021/05/07 10:45:50;;;;;;;8.97;5.23;;;;;;;10.99;85.77;95959.41;5075893;28;20630;-74
2021/05/07 10:48:19;;;;;;;5.43;3.23;;;;;;;10.72;72.37;95966.41;5076271;28;20214;-75
2021/05/07 10:50:46;;;;;;;6.67;4.53;;;;;;;10.46;77.61;95971.31;5076558;28;20224;-74
2021/05/07 10:53:27;;;;;;;6.83;4.13;;;;;;;9.99;77.49;95975.28;5077045;28;20199;-71
2021/05/07 10:55:53;;;;;;;3.73;2.80;;;;;;;10.12;78.84;95983.38;5076348;28;21054;-71
2021/05/07 10:58:30;;;;;;;7.30;4.70;;;;;;;10.17;76.55;95975.75;5077011;28;20204;-71
2021/05/07 11:00:57;;;;;;;9.67;4.70;;;;;;;10.06;76.01;95992.00;5077075;28;20219;-71
2021/05/07 11:03:23;;;;;;;7.43;4.57;;;;;;;10.49;78.12;95982.31;5076501;28;20448;-71
2021/05/07 11:05:51;;;;;;;4.87;3.73;;;;;;;10.13;75.94;95991.13;5073886;28;20203;-74
2021/05/07 11:08:17;;;;;;;7.67;4.60;;;;;;;10.01;79.24;95997.78;5076882;28;20204;-70
2021/05/07 11:10:43;;;;;;;5.23;3.20;;;;;;;10.37;75.88;95989.03;5076686;28;20224;-71
2021/05/07 11:13:10;;;;;;;5.67;3.87;;;;;;;10.55;80.42;95992.13;5076190;28;20226;-71
2021/05/07 11:15:37;;;;;;;5.40;3.93;;;;;;;10.66;76.14;95996.91;5075750;28;20203;-73
2021/05/07 11:18:06;;;;;;;4.30;2.90;;;;;;;10.68;72.97;95994.09;5076492;28;20208;-71
2021/05/07 11:20:35;;;;;;;5.53;3.80;;;;;;;10.88;72.70;96003.88;5076144;28;20228;-72
2021/05/07 11:23:03;;;;;;;5.93;2.83;;;;;;;10.92;75.51;96006.97;5075994;28;20727;-71
2021/05/07 11:25:31;;;;;;;5.63;3.83;;;;;;;10.91;75.37;95998.25;5075745;28;20204;-73
2021/05/07 11:28:11;;;;;;;7.20;3.13;;;;;;;10.73;77.54;96004.91;5076645;28;20245;-72
2021/05/07 11:30:45;;;;;;;6.90;3.37;;;;;;;10.41;74.48;96013.16;5075887;28;20425;-71
2021/05/07 11:33:12;;;;;;;5.40;3.70;;;;;;;10.45;78.12;96015.28;5077076;28;20199;-71